Time;durP1;ratioP1;P1;durP2;ratioP2;P2;SDS_P1;SDS_P2;PMS_P1;PMS_P2;Temp;Humidity;BMP_temperature;BMP_pressure;BME280_temperature;BME280_humidity;BME280_pressure;Samples;Min_cycle;Max_cycle;Signal;HPM_P1;HPM_P2
2021/11/12 00:04:15;;;;;;;15.00;10.80;;;4.30;99.90;3.90;97282.00;;;;5053105;28;20200;-86
2021/11/12 00:13:18;;;;;;;12.70;10.90;;;4.30;99.90;3.90;97288.00;;;;5063735;28;20628;-86
2021/11/12 00:16:08;;;;;;;16.60;11.47;;;4.20;99.90;3.70;97284.00;;;;5063304;28;20282;-88
2021/11/12 00:18:57;;;;;;;15.13;10.90;;;4.20;99.90;3.70;97293.00;;;;5060523;28;20200;-88
2021/11/12 00:21:47;;;;;;;14.33;10.30;;;4.20;99.90;3.80;97288.00;;;;5061909;28;20211;-86
2021/11/12 00:24:36;;;;;;;14.27;11.07;;;4.20;99.90;3.80;97289.00;;;;5062359;28;20601;-87
2021/11/12 00:27:27;;;;;;;14.63;10.37;;;4.20;99.90;3.90;97297.00;;;;5060114;28;20236;-88
2021/11/12 00:30:26;;;;;;;15.97;11.43;;;4.20;99.90;3.90;97291.00;;;;5058137;28;20208;-88
2021/11/12 00:33:26;;;;;;;16.17;10.30;;;4.20;99.90;3.70;97292.00;;;;5059872;28;20235;-87
2021/11/12 00:36:27;;;;;;;15.83;9.87;;;4.20;99.90;3.80;97284.00;;;;5059743;28;20224;-88
2021/11/12 00:39:22;;;;;;;17.33;10.67;;;4.20;99.90;3.90;97290.00;;;;5063074;28;20227;-88
2021/11/12 00:42:14;;;;;;;15.67;10.93;;;4.20;99.90;3.90;97298.00;;;;5058812;28;20431;-86
2021/11/12 00:45:06;;;;;;;15.20;10.13;;;4.20;99.90;3.90;97294.00;;;;5058365;28;20435;-86
2021/11/12 00:47:57;;;;;;;14.23;10.93;;;4.20;99.90;3.90;97292.00;;;;5059818;28;20838;-87
2021/11/12 00:54:08;;;;;;;17.73;10.40;;;4.20;99.90;3.80;97290.00;;;;5057235;28;20463;-86
2021/11/12 00:56:58;;;;;;;15.40;10.63;;;4.20;99.90;3.80;97294.00;;;;5060599;28;20450;-85
2021/11/12 00:59:47;;;;;;;16.10;10.87;;;4.10;99.90;3.80;97280.00;;;;5059804;28;20204;-87
2021/11/12 01:02:36;;;;;;;13.77;10.33;;;4.10;99.90;4.00;97285.00;;;;5062450;28;20423;-86
2021/11/12 01:05:25;;;;;;;14.53;11.17;;;4.20;99.90;4.00;97287.00;;;;5062865;28;20211;-86
2021/11/12 01:08:14;;;;;;;13.80;9.83;;;4.20;99.90;4.00;97283.00;;;;5063324;28;20204;-87
2021/11/12 01:11:04;;;;;;;20.97;12.50;;;4.20;99.90;4.00;97287.00;;;;5063608;28;20211;-86
2021/11/12 01:13:55;;;;;;;18.17;11.87;;;4.20;99.90;3.90;97284.00;;;;5062326;28;20216;-86
2021/11/12 01:16:44;;;;;;;17.40;10.53;;;3.80;99.90;3.90;97294.00;;;;5058680;28;20906;-87
2021/11/12 01:19:33;;;;;;;15.43;11.10;;;4.20;99.90;3.80;97291.00;;;;5052606;28;20208;-86
2021/11/12 01:22:22;;;;;;;16.73;10.93;;;4.20;99.90;3.70;97298.00;;;;5060826;28;20212;-87
2021/11/12 01:25:14;;;;;;;21.20;11.83;;;4.20;99.90;3.70;97296.00;;;;5061771;28;20701;-86
2021/11/12 01:28:03;;;;;;;16.60;10.47;;;4.20;99.90;3.80;97291.00;;;;5060825;28;20922;-86
2021/11/12 01:30:54;;;;;;;21.03;12.23;;;4.10;99.90;3.80;97293.00;;;;5060912;28;20752;-86
2021/11/12 01:33:43;;;;;;;20.67;11.20;;;4.10;99.90;3.80;97296.00;;;;5060397;28;20475;-88
2021/11/12 01:36:34;;;;;;;21.20;12.13;;;4.10;99.90;3.90;97291.00;;;;5060200;28;20443;-86
2021/11/12 01:39:24;;;;;;;18.23;12.90;;;4.10;99.90;3.90;97300.00;;;;5060252;28;20228;-87
2021/11/12 01:42:13;;;;;;;19.53;11.47;;;4.10;99.90;3.90;97288.00;;;;5046895;28;20720;-87
2021/11/12 01:45:10;;;;;;;19.77;11.83;;;4.20;99.90;3.90;97289.00;;;;5056520;28;20207;-87
2021/11/12 01:48:12;;;;;;;20.07;11.53;;;4.10;99.90;3.60;97280.00;;;;5047657;28;20675;-85
2021/11/12 01:51:06;;;;;;;20.50;11.40;;;4.10;99.90;3.60;97280.00;;;;5048247;28;20211;-88
2021/11/12 01:54:08;;;;;;;21.17;12.43;;;4.10;99.90;3.60;97274.00;;;;5057774;28;20471;-87
2021/11/12 01:57:22;;;;;;;22.00;13.80;;;4.10;99.90;3.60;97275.00;;;;5057587;28;20707;-88
2021/11/12 02:00:15;;;;;;;23.30;12.80;;;4.00;99.90;3.70;97278.00;;;;5058344;28;20798;-86
2021/11/12 02:03:05;;;;;;;17.63;12.30;;;4.00;99.90;3.60;97278.00;;;;5059272;28;20215;-86
2021/11/12 02:05:54;;;;;;;22.27;12.63;;;4.00;99.90;3.60;97271.00;;;;5058621;28;20455;-85
2021/11/12 02:08:43;;;;;;;24.63;12.33;;;4.00;99.90;3.60;97268.00;;;;5058843;28;20213;-87
2021/11/12 02:11:32;;;;;;;24.67;11.70;;;4.00;99.90;3.60;97277.00;;;;5058420;28;20428;-86
2021/11/12 02:14:22;;;;;;;23.47;12.87;;;4.00;99.90;3.80;97277.00;;;;5057398;28;20474;-85
2021/11/12 02:17:14;;;;;;;21.30;11.77;;;4.00;99.90;3.70;97274.00;;;;5055666;28;20701;-87
2021/11/12 02:20:11;;;;;;;22.43;13.20;;;4.00;99.90;3.60;97265.00;;;;5057172;28;20940;-88
2021/11/12 02:23:03;;;;;;;22.80;12.50;;;4.00;99.90;3.60;97283.00;;;;5055612;28;20208;-86
2021/11/12 02:25:53;;;;;;;18.87;12.53;;;4.00;99.90;3.60;97273.00;;;;5057349;28;20246;-86
2021/11/12 02:28:44;;;;;;;22.80;12.17;;;4.00;99.90;3.50;97273.00;;;;5055848;28;20201;-87
2021/11/12 02:31:33;;;;;;;20.23;11.90;;;3.90;99.90;3.50;97283.00;;;;5056923;28;20784;-88
2021/11/12 02:34:22;;;;;;;31.27;12.67;;;3.90;99.90;3.60;97273.00;;;;5056204;28;20473;-87
2021/11/12 02:37:11;;;;;;;20.10;12.27;;;3.90;99.90;3.50;97269.00;;;;5056014;28;20944;-86
2021/11/12 02:40:04;;;;;;;22.67;12.23;;;3.90;99.90;3.50;97268.00;;;;5055413;28;20458;-87
2021/11/12 02:42:53;;;;;;;25.33;12.63;;;3.90;99.90;3.60;97259.00;;;;5043572;28;20450;-86
2021/11/12 02:45:43;;;;;;;23.00;12.13;;;3.90;99.90;3.60;97265.00;;;;5054401;28;20451;-87
2021/11/12 02:48:36;;;;;;;26.13;13.20;;;3.90;99.90;3.50;97264.00;;;;5052908;28;20971;-86
2021/11/12 02:51:29;;;;;;;24.10;12.83;;;3.90;99.90;3.60;97261.00;;;;5053726;28;20554;-86
2021/11/12 02:54:18;;;;;;;23.93;12.17;;;3.90;99.90;3.70;97269.00;;;;5053425;28;20229;-87
2021/11/12 02:57:08;;;;;;;21.90;13.47;;;3.90;99.90;3.70;97269.00;;;;5052452;28;20752;-86
2021/11/12 02:59:59;;;;;;;29.83;12.70;;;3.90;99.90;3.60;97268.00;;;;5053350;28;20958;-86
2021/11/12 03:02:48;;;;;;;23.73;13.57;;;3.90;99.90;3.70;97275.00;;;;5054077;28;20775;-86
2021/11/12 03:05:38;;;;;;;29.73;13.93;;;3.90;99.90;3.80;97288.00;;;;5037687;28;20221;-88
2021/11/12 03:08:28;;;;;;;24.77;13.00;;;3.90;99.90;3.70;97285.00;;;;5054919;28;20212;-87
2021/11/12 03:11:18;;;;;;;21.83;11.87;;;4.00;99.90;3.70;97282.00;;;;5053837;28;20200;-89
2021/11/12 03:14:09;;;;;;;25.13;13.23;;;3.90;99.90;3.70;97287.00;;;;5052072;28;20220;-85
2021/11/12 03:16:59;;;;;;;25.57;12.23;;;3.90;99.90;3.80;97292.00;;;;5051115;28;20228;-88
2021/11/12 03:19:48;;;;;;;24.37;13.47;;;4.00;99.90;3.80;97291.00;;;;5052198;28;20227;-86
2021/11/12 03:22:41;;;;;;;27.43;13.80;;;4.00;99.90;3.70;97286.00;;;;5052742;28;20208;-87
2021/11/12 03:25:36;;;;;;;28.60;14.77;;;4.00;99.90;3.60;97284.00;;;;5042358;28;20724;-86
2021/11/12 03:28:41;;;;;;;25.40;13.20;;;4.00;99.90;3.60;97286.00;;;;5051436;28;20447;-86
2021/11/12 03:49:54;;;;;;;23.80;14.33;;;4.10;99.90;4.20;97294.00;;;;5050290;28;20231;-85
2021/11/12 04:00:00;;;;;;;26.33;13.33;;;4.30;99.90;4.30;97302.00;;;;5050946;28;20212;-86
2021/11/12 04:03:01;;;;;;;22.23;11.50;;;4.30;99.90;4.30;97294.00;;;;5053121;28;20209;-86
2021/11/12 04:06:11;;;;;;;21.17;13.10;;;4.30;99.90;4.30;97302.00;;;;5042195;28;20254;-87
2021/11/12 04:18:29;;;;;;;18.67;11.13;;;4.40;99.90;4.30;97285.00;;;;5051186;28;20208;-84
2021/11/12 04:21:41;;;;;;;20.83;11.50;;;4.60;99.90;4.20;97275.00;;;;5052387;28;20212;-85
2021/11/12 04:31:08;;;;;;;19.40;11.73;;;4.30;99.90;4.20;97272.00;;;;5050059;28;20207;-85
2021/11/12 04:49:57;;;;;;;23.30;12.40;;;4.30;99.90;4.00;97274.00;;;;5050326;28;20251;-85
2021/11/12 05:45:57;;;;;;;22.30;12.17;;;4.30;99.90;4.20;97285.00;;;;5052647;28;20227;-88
2021/11/12 05:52:12;;;;;;;24.00;11.60;;;4.40;99.90;4.20;97265.00;;;;5056810;28;20200;-87
2021/11/12 05:55:06;;;;;;;24.60;12.77;;;4.30;99.90;4.20;97274.00;;;;5054066;28;20247;-86
2021/11/12 05:57:56;;;;;;;21.87;12.43;;;4.30;99.90;4.10;97275.00;;;;5053378;28;20212;-86
2021/11/12 06:00:45;;;;;;;23.80;11.43;;;4.30;99.90;4.10;97281.00;;;;5048964;28;20200;-85
2021/11/12 06:03:34;;;;;;;22.37;12.83;;;4.30;99.90;4.10;97286.00;;;;5054968;28;20211;-86
2021/11/12 06:06:23;;;;;;;22.57;13.30;;;4.30;99.90;4.20;97279.00;;;;5055029;28;20224;-85
2021/11/12 06:09:13;;;;;;;19.33;12.10;;;4.30;99.90;4.20;97280.00;;;;5055666;28;20219;-86
2021/11/12 06:12:02;;;;;;;25.43;11.90;;;4.30;99.90;4.10;97289.00;;;;5041586;28;20212;-85
2021/11/12 06:14:51;;;;;;;20.93;12.30;;;4.30;99.90;4.10;97297.00;;;;5056584;28;20224;-86
2021/11/12 06:17:40;;;;;;;20.20;12.37;;;4.40;99.90;4.20;97270.00;;;;5058347;28;20205;-87
2021/11/12 06:20:29;;;;;;;28.40;13.80;;;4.30;99.90;4.10;97277.00;;;;5056721;28;20197;-87
2021/11/12 06:23:18;;;;;;;31.20;13.13;;;4.40;99.90;4.20;97283.00;;;;5058701;28;20215;-85
2021/11/12 06:26:10;;;;;;;30.50;13.10;;;4.30;99.90;4.20;97274.00;;;;5050325;28;20227;-87
2021/11/12 06:29:00;;;;;;;25.97;13.30;;;4.30;99.90;4.20;97268.00;;;;5055552;28;20212;-88
2021/11/12 06:31:49;;;;;;;19.83;12.37;;;4.30;99.90;4.30;97280.00;;;;5054179;28;21037;-87
2021/11/12 06:34:39;;;;;;;21.63;12.30;;;4.30;99.90;4.30;97274.00;;;;5053044;28;20217;-85
2021/11/12 06:37:28;;;;;;;23.73;12.73;;;4.40;99.90;4.30;97278.00;;;;5053861;28;20452;-87
2021/11/12 06:40:20;;;;;;;21.40;12.00;;;4.40;99.90;4.30;97281.00;;;;5048330;28;20256;-86
2021/11/12 06:43:21;;;;;;;26.10;13.00;;;4.40;99.90;4.30;97262.00;;;;5044216;28;20192;-85
2021/11/12 06:52:24;;;;;;;25.07;12.93;;;4.40;99.90;4.10;97271.00;;;;5052750;28;20211;-86
2021/11/12 06:55:14;;;;;;;27.80;12.17;;;4.40;99.90;4.20;97272.00;;;;5051621;28;20217;-86
2021/11/12 06:58:03;;;;;;;22.13;12.87;;;4.40;99.90;4.20;97270.00;;;;5053992;28;20193;-85
2021/11/12 07:00:53;;;;;;;25.53;13.93;;;4.40;99.90;4.30;97281.00;;;;5061324;28;20193;-88
2021/11/12 07:03:42;;;;;;;26.10;12.13;;;4.40;99.90;4.30;97283.00;;;;5061146;28;20226;-86
2021/11/12 07:06:31;;;;;;;22.53;11.47;;;4.40;99.90;4.40;97281.00;;;;5056496;28;20291;-87
2021/11/12 07:09:20;;;;;;;17.93;11.67;;;4.40;99.90;4.40;97279.00;;;;5046519;28;20200;-86
2021/11/12 07:12:11;;;;;;;28.53;12.90;;;4.40;99.90;4.50;97284.00;;;;5053644;28;20212;-88
2021/11/12 07:15:02;;;;;;;28.17;12.37;;;4.40;99.90;4.50;97286.00;;;;5058413;28;20232;-86
2021/11/12 07:17:53;;;;;;;24.40;13.03;;;4.50;99.90;4.50;97288.00;;;;5059020;28;20259;-88
2021/11/12 07:20:42;;;;;;;17.93;12.63;;;4.50;99.90;4.50;97278.00;;;;5055259;28;20208;-86
2021/11/12 07:23:31;;;;;;;26.20;12.47;;;4.50;99.90;4.60;97273.00;;;;5057745;28;20200;-86
2021/11/12 07:26:23;;;;;;;23.30;13.33;;;4.60;99.90;4.70;97284.00;;;;5045977;28;20232;-88
2021/11/12 07:29:12;;;;;;;26.50;13.13;;;4.60;99.90;4.70;97282.00;;;;5051412;28;20216;-85
2021/11/12 07:32:02;;;;;;;24.23;13.23;;;4.70;99.90;4.70;97285.00;;;;5060879;28;20205;-86
2021/11/12 07:34:53;;;;;;;25.27;11.87;;;4.70;99.90;4.70;97285.00;;;;5060277;28;20208;-88
2021/11/12 07:37:42;;;;;;;28.10;12.00;;;4.70;99.90;4.80;97281.00;;;;5053901;28;20201;-87
2021/11/12 07:40:48;;;;;;;23.03;11.77;;;4.80;99.90;4.80;97285.00;;;;5055420;28;20205;-87
2021/11/12 07:46:45;;;;;;;18.97;10.50;;;4.80;99.90;4.90;97283.00;;;;5055372;28;20247;-88
2021/11/12 07:49:34;;;;;;;18.73;10.27;;;4.80;99.90;4.90;97275.00;;;;5048344;28;20205;-87
2021/11/12 07:52:27;;;;;;;16.23;11.03;;;4.90;99.90;4.90;97283.00;;;;5058251;28;20193;-86
2021/11/12 07:55:16;;;;;;;23.53;12.00;;;4.90;99.90;5.00;97281.00;;;;5055126;28;20597;-87
2021/11/12 07:58:05;;;;;;;20.13;11.77;;;4.90;99.90;5.10;97291.00;;;;5139582;22;20732;-77
2021/11/12 08:00:53;;;;;;;14.33;9.27;;;5.00;99.90;5.00;97286.00;;;;5049355;28;20725;-75
2021/11/12 08:04:08;;;;;;;16.53;10.87;;;5.00;99.90;5.10;97297.00;;;;5035179;28;20208;-77
2021/11/12 08:07:20;;;;;;;14.27;9.67;;;5.00;99.90;5.10;97293.00;;;;5044882;28;20249;-75
2021/11/12 08:10:14;;;;;;;16.73;9.57;;;5.10;99.90;5.10;97287.00;;;;5033474;28;20205;-76
2021/11/12 08:13:07;;;;;;;15.60;10.03;;;5.10;99.90;5.10;97275.00;;;;5046697;28;20675;-77
2021/11/12 08:16:05;;;;;;;17.87;10.93;;;5.10;99.90;5.20;97276.00;;;;5046766;28;20596;-76
2021/11/12 08:18:57;;;;;;;22.73;10.57;;;5.20;99.90;5.30;97272.00;;;;5031667;28;20227;-77
2021/11/12 08:21:53;;;;;;;14.87;10.20;;;5.20;99.90;5.30;97273.00;;;;5046046;28;20236;-76
2021/11/12 08:24:49;;;;;;;16.97;10.13;;;5.20;99.90;5.30;97263.00;;;;5038484;28;20208;-76
2021/11/12 08:27:57;;;;;;;16.50;10.13;;;5.30;99.90;5.30;97260.00;;;;5045474;28;20676;-76
2021/11/12 08:33:51;;;;;;;14.90;9.90;;;5.30;99.90;5.30;97264.00;;;;5043472;28;20206;-78
2021/11/12 08:36:50;;;;;;;16.00;10.40;;;5.30;99.90;5.30;97266.00;;;;5047094;28;20597;-77
2021/11/12 08:39:51;;;;;;;14.47;9.10;;;5.30;99.90;5.40;97258.00;;;;5041745;28;20202;-78
2021/11/12 08:42:44;;;;;;;15.60;9.87;;;5.30;99.90;5.40;97259.00;;;;5031368;28;20212;-77
2021/11/12 08:45:36;;;;;;;16.00;10.00;;;5.30;99.90;5.40;97261.00;;;;5037193;28;20687;-77
2021/11/12 08:48:36;;;;;;;21.50;8.83;;;5.40;99.90;5.50;97266.00;;;;5034840;28;21037;-77
2021/11/12 08:51:31;;;;;;;17.90;10.30;;;5.40;99.90;5.50;97267.00;;;;5038706;28;20219;-76
2021/11/12 08:54:24;;;;;;;17.47;10.43;;;5.40;99.90;5.60;97260.00;;;;5034835;28;20714;-76
2021/11/12 08:57:15;;;;;;;17.30;10.17;;;5.50;99.90;5.60;97262.00;;;;5031755;28;20707;-76
2021/11/12 09:00:09;;;;;;;15.13;10.27;;;5.50;99.90;5.60;97257.00;;;;5045337;28;20212;-75
2021/11/12 09:02:58;;;;;;;11.03;8.77;;;5.50;99.90;5.60;97248.00;;;;5046390;28;20204;-76
2021/11/12 09:06:01;;;;;;;15.43;9.03;;;5.60;99.90;5.70;97249.00;;;;5044860;28;20196;-78
2021/11/12 09:08:50;;;;;;;16.23;10.63;;;5.60;99.90;5.70;97240.00;;;;5034111;28;20806;-75
2021/11/12 09:11:39;;;;;;;18.20;10.87;;;5.60;99.90;5.60;97235.00;;;;5022592;28;20217;-76
2021/11/12 09:14:29;;;;;;;13.77;9.40;;;5.60;99.90;5.70;97244.00;;;;5037058;28;20208;-76
2021/11/12 09:17:22;;;;;;;13.63;9.70;;;5.70;99.90;5.80;97242.00;;;;5029657;28;20216;-76
2021/11/12 09:20:11;;;;;;;15.53;10.17;;;5.70;99.90;5.90;97237.00;;;;5035510;28;20203;-76
2021/11/12 09:23:01;;;;;;;14.97;9.87;;;5.70;99.90;5.90;97234.00;;;;5033116;28;20487;-76
2021/11/12 09:25:50;;;;;;;13.83;9.40;;;5.80;99.90;5.90;97238.00;;;;5048335;28;20691;-76
2021/11/12 09:28:39;;;;;;;17.20;10.57;;;5.80;99.90;6.00;97245.00;;;;5034912;28;20196;-76
2021/11/12 09:31:28;;;;;;;17.90;11.40;;;5.90;99.90;6.10;97240.00;;;;5032132;28;20221;-76
2021/11/12 09:34:19;;;;;;;14.37;9.23;;;5.90;99.90;6.20;97243.00;;;;5039166;28;20197;-77
2021/11/12 09:37:12;;;;;;;16.30;10.97;;;6.00;99.90;6.20;97245.00;;;;5044426;28;20881;-78
2021/11/12 09:40:01;;;;;;;17.53;11.63;;;6.10;99.90;6.20;97242.00;;;;5053572;28;20197;-78
2021/11/12 09:42:51;;;;;;;15.93;10.37;;;6.10;99.90;6.20;97243.00;;;;5046933;28;20200;-75
2021/11/12 09:45:41;;;;;;;16.80;11.43;;;6.10;99.90;6.40;97253.00;;;;5036696;28;20317;-76
2021/11/12 09:48:30;;;;;;;19.20;11.87;;;6.20;99.90;6.40;97248.00;;;;5029201;28;20216;-76
2021/11/12 09:51:20;;;;;;;17.37;11.63;;;6.20;99.90;6.60;97244.00;;;;5035677;28;20216;-77
2021/11/12 09:54:09;;;;;;;15.23;11.03;;;6.30;99.90;6.70;97234.00;;;;5036841;28;20205;-76
2021/11/12 09:56:58;;;;;;;14.37;10.33;;;6.40;99.90;6.80;97237.00;;;;5047339;28;20228;-76
2021/11/12 09:59:49;;;;;;;17.23;11.47;;;6.40;99.90;6.90;97242.00;;;;5048025;28;20219;-76
2021/11/12 10:02:42;;;;;;;13.57;10.40;;;6.60;99.90;7.00;97230.00;;;;5048508;28;20223;-76
2021/11/12 10:05:50;;;;;;;15.97;11.10;;;6.60;99.90;7.00;97226.00;;;;5048633;28;20200;-76
2021/11/12 10:08:41;;;;;;;17.70;11.10;;;6.70;99.90;6.80;97226.00;;;;5048916;28;20201;-76
2021/11/12 10:11:32;;;;;;;20.97;11.67;;;6.70;99.90;7.00;97227.00;;;;5044878;28;20251;-77
2021/11/12 10:14:38;;;;;;;18.07;12.50;;;6.70;99.90;7.00;97223.00;;;;5045906;28;20201;-77
2021/11/12 10:17:27;;;;;;;16.60;11.03;;;6.80;99.90;7.10;97211.00;;;;5041609;28;20603;-77
2021/11/12 10:20:21;;;;;;;19.40;12.57;;;6.90;99.90;7.10;97206.00;;;;5036833;28;20201;-76
2021/11/12 10:23:19;;;;;;;17.73;12.33;;;6.90;99.90;7.00;97199.00;;;;5040953;28;20205;-75
2021/11/12 10:26:09;;;;;;;17.60;11.30;;;6.90;99.90;6.90;97196.00;;;;5044885;28;20559;-76
2021/11/12 10:29:06;;;;;;;22.67;12.33;;;6.90;99.90;7.00;97201.00;;;;5040055;28;20212;-76
2021/11/12 10:32:01;;;;;;;17.00;11.13;;;6.90;99.90;7.10;97204.00;;;;5047012;28;20208;-76
2021/11/12 10:34:52;;;;;;;20.87;11.77;;;6.90;99.90;7.10;97201.00;;;;5048182;28;20203;-76
2021/11/12 10:37:41;;;;;;;22.93;12.40;;;6.90;99.90;6.90;97202.00;;;;5047184;28;20243;-75
2021/11/12 10:40:30;;;;;;;22.10;13.17;;;6.90;99.90;6.70;97200.00;;;;5031360;28;20208;-76
2021/11/12 10:43:24;;;;;;;20.57;12.37;;;6.90;99.90;6.70;97198.00;;;;5045910;28;20201;-77
2021/11/12 10:46:13;;;;;;;17.77;11.80;;;6.80;99.90;6.70;97200.00;;;;5035469;28;20193;-76
2021/11/12 10:49:29;;;;;;;20.07;13.07;;;6.80;99.90;6.70;97201.00;;;;5048360;28;20663;-76
2021/11/12 10:52:21;;;;;;;21.00;13.13;;;6.70;99.90;6.70;97192.00;;;;5047489;28;20235;-76
2021/11/12 10:55:13;;;;;;;17.73;12.20;;;6.60;99.90;6.50;97200.00;;;;5047891;28;20698;-75
2021/11/12 10:58:06;;;;;;;18.43;11.93;;;6.60;99.90;6.30;97197.00;;;;5047317;28;20227;-75
2021/11/12 11:00:56;;;;;;;21.10;11.87;;;6.50;99.90;6.40;97192.00;;;;5047955;28;20217;-76
2021/11/12 11:03:45;;;;;;;14.43;10.40;;;6.50;99.90;6.40;97193.00;;;;5047779;28;20691;-76
2021/11/12 11:06:34;;;;;;;24.17;12.07;;;6.40;99.90;6.40;97188.00;;;;5047743;28;20215;-77
2021/11/12 11:09:38;;;;;;;17.23;11.67;;;6.40;99.90;6.40;97187.00;;;;5046506;28;20188;-76
2021/11/12 11:12:42;;;;;;;19.13;12.80;;;6.40;99.90;6.30;97192.00;;;;5038254;28;20235;-77
2021/11/12 11:15:37;;;;;;;19.73;12.00;;;6.40;99.90;6.30;97199.00;;;;5036662;28;20587;-76
2021/11/12 11:18:30;;;;;;;18.13;12.77;;;6.30;99.90;6.30;97198.00;;;;5034909;28;20216;-77
2021/11/12 11:21:26;;;;;;;21.00;13.70;;;6.30;99.90;6.20;97202.00;;;;5036743;28;20717;-77
2021/11/12 11:24:17;;;;;;;16.63;11.77;;;6.30;99.90;6.10;97188.00;;;;5047150;28;20687;-77
2021/11/12 11:27:07;;;;;;;17.27;12.47;;;6.20;99.90;6.20;97179.00;;;;5045864;28;20220;-77
2021/11/12 11:29:56;;;;;;;18.00;11.67;;;6.20;99.90;5.90;97180.00;;;;5031802;28;20208;-77
2021/11/12 11:32:46;;;;;;;17.50;12.47;;;6.10;99.90;6.10;97182.00;;;;5046159;28;20848;-77
2021/11/12 11:35:38;;;;;;;19.97;12.27;;;6.10;99.90;6.20;97176.00;;;;5046485;28;20231;-76
2021/11/12 11:38:30;;;;;;;17.87;12.73;;;6.10;99.90;6.20;97170.00;;;;5046492;28;20228;-75
2021/11/12 11:41:24;;;;;;;28.63;14.73;;;6.10;99.90;6.30;97175.00;;;;5031557;28;20226;-76
2021/11/12 11:44:16;;;;;;;25.93;15.43;;;6.10;99.90;6.30;97164.00;;;;5046164;28;20197;-77
2021/11/12 11:47:06;;;;;;;23.37;15.17;;;6.20;99.90;6.30;97167.00;;;;5042543;28;20577;-76
2021/11/12 11:49:57;;;;;;;23.97;15.07;;;6.20;99.90;6.10;97162.00;;;;5039792;28;20621;-76
2021/11/12 11:52:47;;;;;;;21.10;15.60;;;6.20;99.90;6.20;97158.00;;;;5045398;28;20525;-77
2021/11/12 11:55:39;;;;;;;26.20;15.60;;;6.20;99.90;6.20;97157.00;;;;5042523;28;20204;-76
2021/11/12 11:58:36;;;;;;;22.03;16.67;;;6.10;99.90;6.00;97154.00;;;;5040339;28;20224;-76
2021/11/12 12:01:39;;;;;;;26.50;16.40;;;6.10;99.90;6.00;97148.00;;;;5033387;28;21157;-76
2021/11/12 12:04:39;;;;;;;27.43;16.80;;;6.00;99.90;6.00;97157.00;;;;5039125;28;20292;-76
2021/11/12 12:07:41;;;;;;;31.00;17.97;;;6.00;99.90;6.00;97143.00;;;;5044342;28;20201;-76
2021/11/12 12:10:31;;;;;;;29.33;18.13;;;6.00;99.90;6.00;97152.00;;;;5027651;28;20211;-76
2021/11/12 12:13:27;;;;;;;28.97;18.00;;;6.00;99.90;6.00;97138.00;;;;5037350;28;20197;-76
2021/11/12 12:16:24;;;;;;;30.43;17.67;;;6.00;99.90;6.00;97143.00;;;;5043756;28;20204;-76
2021/11/12 12:19:43;;;;;;;30.93;19.47;;;5.90;99.90;5.80;97140.00;;;;5026058;28;20712;-76
2021/11/12 12:35:39;;;;;;;29.60;18.63;;;5.80;99.90;5.60;97143.00;;;;5029230;28;20204;-76
2021/11/12 13:21:18;;;;;;;20.90;15.17;;;5.90;99.90;5.90;97075.00;;;;5039030;28;20232;-77
2021/11/12 13:24:29;;;;;;;26.80;16.93;;;5.90;99.90;5.80;97066.00;;;;5040215;28;20205;-76
2021/11/12 13:27:18;;;;;;;24.83;16.97;;;5.80;99.90;5.90;97072.00;;;;5028807;28;20208;-77
2021/11/12 13:30:10;;;;;;;32.60;17.17;;;5.80;99.90;6.00;97069.00;;;;5029932;28;20698;-76
2021/11/12 13:32:59;;;;;;;32.87;19.20;;;5.80;99.90;5.80;97061.00;;;;5036879;28;20211;-75
2021/11/12 13:35:48;;;;;;;28.17;17.53;;;5.80;99.90;5.80;97066.00;;;;5037077;28;20200;-76
2021/11/12 13:38:41;;;;;;;28.50;17.97;;;5.90;99.90;5.80;97062.00;;;;5033006;28;20217;-76
2021/11/12 13:41:33;;;;;;;30.23;18.17;;;5.80;99.90;5.80;97071.00;;;;5037452;28;20228;-76
2021/11/12 13:44:25;;;;;;;30.53;15.53;;;5.80;99.90;5.80;97073.00;;;;5033209;28;20212;-76
2021/11/12 13:47:21;;;;;;;26.13;16.00;;;5.80;99.90;5.80;97070.00;;;;5025678;28;20641;-77
2021/11/12 13:50:12;;;;;;;20.67;14.97;;;5.80;99.90;5.70;97062.00;;;;5033085;28;20200;-76
2021/11/12 13:53:02;;;;;;;29.90;17.23;;;5.80;99.90;5.70;97054.00;;;;5030250;28;20197;-76
2021/11/12 13:55:51;;;;;;;21.37;14.63;;;5.70;99.90;5.60;97056.00;;;;5038481;28;20589;-77
2021/11/12 13:58:40;;;;;;;20.83;14.33;;;5.70;99.90;5.60;97054.00;;;;5041150;28;20224;-76
2021/11/12 14:01:31;;;;;;;24.33;15.80;;;5.70;99.90;5.60;97060.00;;;;5040757;28;20601;-77
2021/11/12 14:04:27;;;;;;;21.03;15.80;;;6.50;99.90;5.40;97056.00;;;;5040207;28;20217;-77
2021/11/12 14:07:19;;;;;;;24.30;14.97;;;5.60;99.90;5.50;97052.00;;;;5038721;28;20208;-77
2021/11/12 14:10:10;;;;;;;24.57;16.13;;;5.60;99.90;5.50;97049.00;;;;5039177;28;20212;-77
2021/11/12 14:13:02;;;;;;;26.57;15.70;;;5.50;99.90;5.50;97041.00;;;;5046975;28;20683;-78
2021/11/12 14:16:00;;;;;;;26.33;15.30;;;5.50;99.90;5.40;97052.00;;;;5050295;28;20693;-77
2021/11/12 14:19:25;;;;;;;21.47;14.80;;;5.50;99.90;5.40;97055.00;;;;5027240;28;20596;-77
2021/11/12 14:22:32;;;;;;;23.53;14.80;;;5.50;99.90;5.40;97051.00;;;;5035922;28;20224;-77
2021/11/12 14:25:36;;;;;;;24.83;16.27;;;5.50;99.90;5.40;97044.00;;;;5039703;28;20193;-77
2021/11/12 14:28:41;;;;;;;20.13;14.37;;;5.50;99.90;5.40;97054.00;;;;5041224;28;20203;-77
2021/11/12 14:31:48;;;;;;;20.73;13.57;;;5.40;99.90;5.50;97046.00;;;;5035741;28;20240;-77
2021/11/12 14:35:01;;;;;;;25.33;15.03;;;5.50;99.90;5.50;97051.00;;;;5044484;28;20663;-77
2021/11/12 14:38:09;;;;;;;24.23;15.40;;;5.50;99.90;5.50;97043.00;;;;5034272;28;20204;-76
2021/11/12 14:44:24;;;;;;;22.10;15.43;;;5.50;99.90;5.50;97046.00;;;;5034847;28;20201;-77
2021/11/12 14:47:21;;;;;;;28.77;15.23;;;5.50;99.90;5.40;97044.00;;;;5036365;28;20201;-77
2021/11/12 14:50:37;;;;;;;20.77;13.70;;;5.50;99.90;5.30;97038.00;;;;5030579;28;20210;-76
2021/11/12 14:53:37;;;;;;;26.90;14.80;;;5.50;99.90;5.40;97042.00;;;;5030004;28;20240;-77
2021/11/12 14:56:27;;;;;;;19.20;14.40;;;5.50;99.90;5.40;97038.00;;;;5036593;28;20189;-78
2021/11/12 14:59:18;;;;;;;26.57;16.27;;;5.40;99.90;5.60;97049.00;;;;5037892;28;20731;-78
2021/11/12 15:02:09;;;;;;;21.60;14.97;;;5.50;99.90;5.70;97041.00;;;;5037143;28;20212;-78
2021/11/12 15:04:58;;;;;;;23.07;15.00;;;5.50;99.90;5.80;97042.00;;;;5034664;28;20325;-77
2021/11/12 15:07:52;;;;;;;20.40;14.37;;;5.60;99.90;6.10;97042.00;;;;5038633;28;20198;-76
2021/11/12 15:10:42;;;;;;;21.07;13.77;;;5.70;99.90;6.20;97046.00;;;;5032806;28;20233;-77
2021/11/12 15:13:32;;;;;;;25.17;13.80;;;5.80;99.90;6.20;97049.00;;;;5047168;28;20208;-78
2021/11/12 15:16:24;;;;;;;19.27;14.00;;;5.90;99.90;5.90;97046.00;;;;5047097;28;20204;-78
2021/11/12 15:19:15;;;;;;;24.93;15.20;;;5.90;99.90;5.70;97044.00;;;;5042769;28;20275;-77
2021/11/12 15:22:12;;;;;;;21.80;13.67;;;5.90;99.90;5.60;97029.00;;;;5036811;28;20217;-76
2021/11/12 15:25:09;;;;;;;20.07;12.87;;;5.80;99.90;5.50;97041.00;;;;5026526;28;20683;-76
2021/11/12 15:28:08;;;;;;;22.30;14.07;;;5.70;99.90;5.40;97044.00;;;;5035548;28;20586;-77
2021/11/12 15:31:01;;;;;;;25.40;16.20;;;5.60;99.90;5.40;97042.00;;;;5035708;28;20235;-77
2021/11/12 15:33:57;;;;;;;22.10;13.23;;;5.60;99.90;5.40;97037.00;;;;5043645;28;20579;-77
2021/11/12 15:36:55;;;;;;;16.43;12.20;;;5.50;99.90;5.40;97037.00;;;;5037470;28;20583;-77
2021/11/12 15:40:00;;;;;;;20.57;12.90;;;5.50;99.90;5.30;97038.00;;;;5034894;28;20290;-77
2021/11/12 15:43:00;;;;;;;27.10;13.87;;;5.50;99.90;5.10;97042.00;;;;5036952;28;20698;-77
2021/11/12 15:48:57;;;;;;;28.13;13.20;;;5.30;99.90;5.20;97032.00;;;;5033615;28;20215;-77
2021/11/12 15:51:49;;;;;;;22.23;13.13;;;5.30;99.90;5.10;97029.00;;;;5038833;28;20224;-76
2021/11/12 16:00:59;;;;;;;22.90;14.13;;;5.20;99.90;5.00;97025.00;;;;5034624;28;20243;-77
2021/11/12 16:07:09;;;;;;;27.00;16.30;;;5.10;99.90;5.00;97033.00;;;;5045622;28;20192;-77
2021/11/12 16:10:13;;;;;;;21.17;14.70;;;5.10;99.90;4.90;97035.00;;;;5044580;28;20669;-77
2021/11/12 16:13:05;;;;;;;24.70;13.93;;;5.10;99.90;4.90;97027.00;;;;5045649;28;20200;-76
2021/11/12 16:19:06;;;;;;;33.70;20.67;;;5.10;99.90;4.90;97040.00;;;;5038322;28;20200;-77
2021/11/12 16:25:16;;;;;;;35.83;22.30;;;5.00;99.90;4.90;97048.00;;;;5034271;28;20635;-76
2021/11/12 16:28:06;;;;;;;31.40;19.40;;;5.00;99.90;4.90;97050.00;;;;5041145;28;20205;-77